createdAt,value
2019-03-03T00:01:44.961Z,89.87
2019-03-03T00:04:15.437Z,89.06
2019-03-03T00:06:46.229Z,88.90
2019-03-03T00:09:17.273Z,88.55
2019-03-03T00:11:47.717Z,89.18
2019-03-03T00:14:18.535Z,88.31
2019-03-03T00:16:49.381Z,87.62
2019-03-03T00:19:19.814Z,87.31
2019-03-03T00:21:50.648Z,86.63
2019-03-03T00:24:21.083Z,87.06
2019-03-03T00:26:51.901Z,86.61
2019-03-03T00:29:22.651Z,86.33
2019-03-03T00:31:53.387Z,86.16
2019-03-03T00:34:24.128Z,85.97
2019-03-03T00:37:16.508Z,85.01
2019-03-03T00:40:05.896Z,85.22
2019-03-03T00:42:53.840Z,85.71
2019-03-03T00:45:42.032Z,84.44
2019-03-03T00:48:32.167Z,84.46
2019-03-03T00:51:30.224Z,84.77
2019-03-03T00:54:08.393Z,84.45
2019-03-03T00:56:52.575Z,83.94
2019-03-03T00:59:32.378Z,82.68
2019-03-03T01:02:11.547Z,81.46
2019-03-03T01:04:59.537Z,80.96
2019-03-03T01:07:49.244Z,81.32
2019-03-03T01:10:27.612Z,80.92
2019-03-03T01:13:12.004Z,80.75
2019-03-03T01:15:59.941Z,81.39
2019-03-03T01:18:44.375Z,81.15
2019-03-03T01:21:49.054Z,81.32
2019-03-03T01:24:40.915Z,80.92
2019-03-03T01:27:11.521Z,80.20
2019-03-03T01:29:41.969Z,80.47
2019-03-03T01:32:12.916Z,80.38
2019-03-03T01:34:43.359Z,80.51
2019-03-03T01:37:14.316Z,80.54
2019-03-03T01:39:45.120Z,81.02
2019-03-03T01:42:15.965Z,81.05
2019-03-03T01:44:46.804Z,81.26
2019-03-03T01:47:17.277Z,80.95
2019-03-03T01:49:47.709Z,80.74
2019-03-03T01:52:18.178Z,80.83
2019-03-03T01:54:48.916Z,81.00
2019-03-03T01:57:19.399Z,81.00
2019-03-03T01:59:50.195Z,81.39
2019-03-03T02:02:21.039Z,80.81
2019-03-03T02:04:51.945Z,80.86
2019-03-03T02:07:22.505Z,80.43
2019-03-03T02:09:52.931Z,81.01
2019-03-03T02:12:23.614Z,80.95
2019-03-03T02:14:54.041Z,80.87
2019-03-03T02:17:24.574Z,81.38
2019-03-03T02:19:55.532Z,80.46
2019-03-03T02:22:26.219Z,80.39
2019-03-03T02:24:57.056Z,79.97
2019-03-03T02:27:27.477Z,80.83
2019-03-03T02:29:57.900Z,80.48
2019-03-03T02:32:28.357Z,80.64
2019-03-03T02:34:58.777Z,79.78
2019-03-03T02:37:29.230Z,79.83
2019-03-03T02:39:59.665Z,79.81
2019-03-03T02:42:30.133Z,79.86
2019-03-03T02:45:00.888Z,80.15
2019-03-03T02:47:31.484Z,79.78
2019-03-03T02:50:01.940Z,79.49
2019-03-03T02:52:32.366Z,79.62
2019-03-03T02:55:02.868Z,79.32
2019-03-03T02:57:33.290Z,79.41
2019-03-03T03:00:04.204Z,79.67
2019-03-03T03:02:48.557Z,79.39
2019-03-03T03:05:30.639Z,79.68
2019-03-03T03:08:07.087Z,79.62
2019-03-03T03:10:55.375Z,79.28
2019-03-03T03:13:43.542Z,78.90
2019-03-03T03:16:22.981Z,78.87
2019-03-03T03:19:11.311Z,79.13
2019-03-03T03:21:59.398Z,78.81
2019-03-03T03:24:37.571Z,79.07
2019-03-03T03:27:26.971Z,79.38
2019-03-03T03:30:09.358Z,79.55
2019-03-03T03:32:47.593Z,79.70
2019-03-03T03:35:42.004Z,80.18
2019-03-03T03:38:20.964Z,79.82
2019-03-03T03:41:08.960Z,79.61
2019-03-03T03:43:58.342Z,79.20
2019-03-03T03:46:37.257Z,79.05
2019-03-03T03:49:32.767Z,79.33
2019-03-03T03:52:21.122Z,78.71
2019-03-03T03:55:05.571Z,78.23
2019-03-03T03:57:54.026Z,78.83
2019-03-03T04:00:43.418Z,77.85
2019-03-03T04:03:31.708Z,77.89
2019-03-03T04:06:21.107Z,78.06
2019-03-03T04:09:02.714Z,78.19
2019-03-03T04:12:07.349Z,77.63
2019-03-03T04:14:46.663Z,77.50
2019-03-03T04:17:45.783Z,77.41
2019-03-03T04:20:41.389Z,77.13
2019-03-03T04:23:30.114Z,76.88
2019-03-03T04:26:19.470Z,77.02
2019-03-03T04:29:04.185Z,77.19
2019-03-03T04:31:56.885Z,77.25
2019-03-03T04:34:58.369Z,77.20
2019-03-03T04:37:46.714Z,77.00
2019-03-03T04:40:48.221Z,77.05
2019-03-03T04:43:43.661Z,77.13
2019-03-03T04:46:23.628Z,77.20
2019-03-03T04:49:12.175Z,76.77
2019-03-03T04:52:07.811Z,76.92
2019-03-03T04:55:03.403Z,77.06
2019-03-03T04:57:55.614Z,76.76
2019-03-03T05:00:44.167Z,76.96
2019-03-03T05:03:23.500Z,77.24
2019-03-03T05:06:09.419Z,76.63
2019-03-03T05:09:02.530Z,76.84
2019-03-03T05:12:37.639Z,77.23
2019-03-03T05:15:43.983Z,77.64
2019-03-03T05:18:33.778Z,78.06
2019-03-03T05:21:04.198Z,78.42
2019-03-03T05:23:35.022Z,78.65
2019-03-03T05:26:05.864Z,78.29
2019-03-03T05:28:36.335Z,78.33
2019-03-03T05:31:06.805Z,78.25
2019-03-03T05:33:37.229Z,78.46
2019-03-03T05:36:07.651Z,78.75
2019-03-03T05:38:38.122Z,78.86
2019-03-03T05:41:08.542Z,78.41
2019-03-03T05:43:38.970Z,78.06
2019-03-03T05:46:09.437Z,78.17
2019-03-03T05:48:39.862Z,78.08
2019-03-03T05:51:10.672Z,78.15
2019-03-03T05:53:41.151Z,78.34
2019-03-03T05:56:11.575Z,78.14
2019-03-03T05:58:42.890Z,78.16
2019-03-03T06:01:13.348Z,77.88
2019-03-03T06:03:43.773Z,77.86
2019-03-03T06:06:14.224Z,77.96
2019-03-03T06:08:44.644Z,78.02
2019-03-03T06:11:15.116Z,77.29
2019-03-03T06:13:45.538Z,77.28
2019-03-03T06:16:15.959Z,77.42
2019-03-03T06:18:46.422Z,77.15
2019-03-03T06:21:17.180Z,77.40
2019-03-03T06:23:47.598Z,77.41
2019-03-03T06:26:18.071Z,77.43
2019-03-03T06:28:48.495Z,77.35
2019-03-03T06:31:19.187Z,77.11
2019-03-03T06:33:50.234Z,76.43
2019-03-03T06:36:20.651Z,76.52
2019-03-03T06:38:51.543Z,76.56
2019-03-03T06:41:22.031Z,76.93
2019-03-03T06:43:52.463Z,76.79
2019-03-03T06:46:22.884Z,76.63
2019-03-03T06:48:53.628Z,76.14
2019-03-03T06:51:25.055Z,76.16
2019-03-03T06:53:55.816Z,76.42
2019-03-03T06:56:26.859Z,75.94
2019-03-03T06:58:57.576Z,75.66
2019-03-03T07:01:28.336Z,75.77
2019-03-03T07:03:59.071Z,75.61
2019-03-03T07:06:29.688Z,75.20
2019-03-03T07:09:00.116Z,75.63
2019-03-03T07:11:30.631Z,75.48
2019-03-03T07:14:01.916Z,75.25
2019-03-03T07:16:32.340Z,75.64
2019-03-03T07:19:02.788Z,75.30
2019-03-03T07:21:33.619Z,75.40
2019-03-03T07:24:04.458Z,75.62
2019-03-03T07:26:34.885Z,77.24
2019-03-03T07:29:05.722Z,78.91
2019-03-03T07:31:36.196Z,78.76
2019-03-03T07:34:06.676Z,78.71
2019-03-03T07:36:37.097Z,78.31
2019-03-03T07:39:17.363Z,78.62
2019-03-03T07:41:48.043Z,78.00
2019-03-03T07:44:18.467Z,78.28
2019-03-03T07:46:48.894Z,78.17
2019-03-03T07:49:19.651Z,77.74
2019-03-03T07:51:50.085Z,78.46
2019-03-03T07:54:20.957Z,78.28
2019-03-03T07:56:51.374Z,78.39
2019-03-03T07:59:21.818Z,78.38
2019-03-03T08:01:52.295Z,78.37
2019-03-03T08:04:22.725Z,77.68
2019-03-03T08:06:53.147Z,77.94
2019-03-03T08:09:23.603Z,78.23
2019-03-03T08:11:54.080Z,78.20
2019-03-03T08:14:24.816Z,78.00
2019-03-03T08:16:55.328Z,78.27
2019-03-03T08:19:25.780Z,77.49
2019-03-03T08:21:56.196Z,77.29
2019-03-03T08:24:26.884Z,77.05
2019-03-03T08:26:57.317Z,77.50
2019-03-03T08:29:27.874Z,77.42
2019-03-03T08:31:58.645Z,76.98
2019-03-03T08:34:29.101Z,77.54
2019-03-03T08:37:00.290Z,77.78
2019-03-03T08:39:30.893Z,77.25
2019-03-03T08:42:20.255Z,77.77
2019-03-03T08:45:09.664Z,77.76
2019-03-03T08:47:53.206Z,77.72
2019-03-03T08:50:35.266Z,77.90
2019-03-03T08:53:18.688Z,78.44
2019-03-03T08:56:01.145Z,78.62
2019-03-03T08:59:05.893Z,79.40
2019-03-03T09:02:13.390Z,80.93
2019-03-03T09:05:02.745Z,81.70
2019-03-03T09:07:52.557Z,82.38
2019-03-03T09:10:45.079Z,82.96
2019-03-03T09:13:30.264Z,83.37
2019-03-03T09:16:18.338Z,83.98
2019-03-03T09:19:12.357Z,83.91
2019-03-03T09:21:51.953Z,84.54
2019-03-03T09:24:41.749Z,84.89
2019-03-03T09:27:29.285Z,84.66
2019-03-03T09:30:13.347Z,85.11
2019-03-03T09:33:05.999Z,84.07
2019-03-03T09:35:54.268Z,85.93
2019-03-03T09:38:46.379Z,84.14
2019-03-03T09:41:30.285Z,85.03
2019-03-03T09:44:22.436Z,85.35
2019-03-03T09:47:12.079Z,84.62
2019-03-03T09:49:59.910Z,85.31
2019-03-03T09:52:52.503Z,85.45
2019-03-03T09:55:40.803Z,84.73
2019-03-03T09:58:22.188Z,84.87
2019-03-03T10:01:17.819Z,85.97
2019-03-03T10:03:57.781Z,85.70
2019-03-03T10:06:53.716Z,85.65
2019-03-03T10:09:49.375Z,85.65
2019-03-03T10:12:38.042Z,86.32
2019-03-03T10:15:17.944Z,86.43
2019-03-03T10:18:25.783Z,85.85
2019-03-03T10:21:11.912Z,86.39
2019-03-03T10:24:00.198Z,86.33
2019-03-03T10:26:47.512Z,86.06
2019-03-03T10:29:55.394Z,86.05
2019-03-03T10:32:53.722Z,86.23
2019-03-03T10:35:41.788Z,86.82
2019-03-03T10:38:35.889Z,86.71
2019-03-03T10:41:19.595Z,87.41
2019-03-03T10:44:05.376Z,87.01
2019-03-03T10:46:57.895Z,87.66
2019-03-03T10:49:40.376Z,87.59
2019-03-03T10:52:36.207Z,87.67
2019-03-03T10:55:14.455Z,89.09
2019-03-03T10:58:00.898Z,90.03
2019-03-03T11:00:51.392Z,90.22
2019-03-03T11:03:35.347Z,90.63
2019-03-03T11:06:18.010Z,91.44
2019-03-03T11:08:55.139Z,92.07
2019-03-03T11:11:47.583Z,92.69
2019-03-03T11:14:27.692Z,92.62
2019-03-03T11:17:14.953Z,92.87
2019-03-03T11:20:23.424Z,92.01
2019-03-03T11:23:18.524Z,93.42
2019-03-03T11:26:13.859Z,92.39
2019-03-03T11:29:06.532Z,92.78
2019-03-03T11:32:03.499Z,93.53
2019-03-03T11:34:52.847Z,93.01
2019-03-03T11:37:33.241Z,93.45
2019-03-03T11:40:18.579Z,93.78
2019-03-03T11:43:01.291Z,94.49
2019-03-03T11:45:50.958Z,93.85
2019-03-03T11:48:49.852Z,94.36
2019-03-03T11:51:39.197Z,94.07
2019-03-03T11:54:23.422Z,92.92
2019-03-03T11:57:18.903Z,93.36
2019-03-03T12:00:18.050Z,93.57
2019-03-03T12:03:16.639Z,93.62
2019-03-03T12:06:00.292Z,94.26
2019-03-03T12:08:37.293Z,93.55
2019-03-03T12:11:23.881Z,93.77
2019-03-03T12:14:16.219Z,93.65
2019-03-03T12:17:05.669Z,94.05
2019-03-03T12:19:52.082Z,93.90
2019-03-03T12:22:39.570Z,93.83
2019-03-03T12:25:29.883Z,93.69
2019-03-03T12:28:18.259Z,93.17
2019-03-03T12:31:03.711Z,93.27
2019-03-03T12:33:58.935Z,92.94
2019-03-03T12:36:56.059Z,93.68
2019-03-03T12:39:55.126Z,93.77
2019-03-03T12:42:32.395Z,93.00
2019-03-03T12:45:11.847Z,93.96
2019-03-03T12:47:56.707Z,93.26
2019-03-03T12:50:48.827Z,93.72
2019-03-03T12:53:34.304Z,93.97
2019-03-03T12:56:25.164Z,94.01
2019-03-03T12:59:16.815Z,94.12
2019-03-03T13:01:54.976Z,94.31
2019-03-03T13:04:47.650Z,92.43
2019-03-03T13:07:43.301Z,93.75
2019-03-03T13:10:44.913Z,92.82
2019-03-03T13:13:33.034Z,92.68
2019-03-03T13:16:23.111Z,92.66
2019-03-03T13:19:03.513Z,92.38
2019-03-03T13:21:52.524Z,92.78
2019-03-03T13:24:40.817Z,92.35
2019-03-03T13:27:33.701Z,92.47
2019-03-03T13:30:23.074Z,91.44
2019-03-03T13:33:11.409Z,91.69
2019-03-03T13:35:51.139Z,90.94
2019-03-03T13:38:43.397Z,91.12
2019-03-03T13:41:31.195Z,90.94
2019-03-03T13:44:01.669Z,91.78
2019-03-03T13:46:32.454Z,92.45
2019-03-03T13:49:02.879Z,92.20
2019-03-03T13:51:35.782Z,92.85
2019-03-03T13:54:06.737Z,91.25
2019-03-03T13:56:37.395Z,92.55
2019-03-03T13:59:08.632Z,91.93
2019-03-03T14:01:39.080Z,92.64
2019-03-03T14:04:09.980Z,93.75
2019-03-03T14:06:40.533Z,92.55
2019-03-03T14:09:11.206Z,91.16
2019-03-03T14:11:42.060Z,91.80
2019-03-03T14:14:12.516Z,92.78
2019-03-03T14:16:42.947Z,92.29
2019-03-03T14:19:13.696Z,91.13
2019-03-03T14:21:44.196Z,91.15
2019-03-03T14:24:16.078Z,91.27
2019-03-03T14:26:46.989Z,90.68
2019-03-03T14:29:17.625Z,91.18
2019-03-03T14:31:48.509Z,91.56
2019-03-03T14:34:18.995Z,89.87
2019-03-03T14:36:49.538Z,90.68
2019-03-03T14:39:20.123Z,90.34
2019-03-03T14:41:50.924Z,90.04
2019-03-03T14:44:21.623Z,89.70
2019-03-03T14:46:52.179Z,89.61
2019-03-03T14:49:22.604Z,89.71
2019-03-03T14:51:53.043Z,89.97
2019-03-03T14:54:24.200Z,90.14
2019-03-03T14:56:54.649Z,90.53
2019-03-03T14:59:25.076Z,90.88
2019-03-03T15:01:55.609Z,89.96
2019-03-03T15:04:26.054Z,91.23
2019-03-03T15:06:56.509Z,91.01
2019-03-03T15:09:27.092Z,91.47
2019-03-03T15:11:58.114Z,90.71
2019-03-03T15:14:28.968Z,91.00
2019-03-03T15:16:59.448Z,91.26
2019-03-03T15:19:29.881Z,91.40
2019-03-03T15:22:02.340Z,92.09
2019-03-03T15:24:33.638Z,91.82
2019-03-03T15:27:06.743Z,90.95
2019-03-03T15:29:37.488Z,91.63
2019-03-03T15:32:10.348Z,91.14
2019-03-03T15:34:41.161Z,91.19
2019-03-03T15:37:16.076Z,91.11
2019-03-03T15:39:46.527Z,91.79
2019-03-03T15:42:17.418Z,91.42
2019-03-03T15:44:47.888Z,91.43
2019-03-03T15:47:18.327Z,91.81
2019-03-03T15:49:49.620Z,91.61
2019-03-03T15:52:21.986Z,91.10
2019-03-03T15:54:52.428Z,91.74
2019-03-03T15:57:23.307Z,91.39
2019-03-03T15:59:58.143Z,92.17
2019-03-03T16:02:28.625Z,92.02
2019-03-03T16:04:59.465Z,92.40
2019-03-03T16:07:29.943Z,91.99
2019-03-03T16:10:00.387Z,91.04
2019-03-03T16:12:30.905Z,91.50
2019-03-03T16:15:02.273Z,92.20
2019-03-03T16:17:33.043Z,92.29
2019-03-03T16:20:03.472Z,92.52
2019-03-03T16:22:33.969Z,92.87
2019-03-03T16:25:04.694Z,92.27
2019-03-03T16:27:36.618Z,93.28
2019-03-03T16:30:08.687Z,92.75
2019-03-03T16:32:39.513Z,93.30
2019-03-03T16:35:12.097Z,93.60
2019-03-03T16:37:43.039Z,93.52
2019-03-03T16:40:17.938Z,93.79
2019-03-03T16:42:49.774Z,93.72
2019-03-03T16:45:21.761Z,93.74
2019-03-03T16:47:52.968Z,94.06
2019-03-03T16:50:25.210Z,93.41
2019-03-03T16:52:55.638Z,93.93
2019-03-03T16:55:26.064Z,94.01
2019-03-03T16:57:56.553Z,93.75
2019-03-03T17:00:27.003Z,93.57
2019-03-03T17:02:57.484Z,93.73
2019-03-03T17:05:27.973Z,93.13
2019-03-03T17:07:58.504Z,93.42
2019-03-03T17:10:29.957Z,93.44
2019-03-03T17:13:00.493Z,93.96
2019-03-03T17:15:30.984Z,93.61
2019-03-03T17:18:02.891Z,93.07
2019-03-03T17:20:35.832Z,92.96
2019-03-03T17:23:06.277Z,93.17
2019-03-03T17:25:37.189Z,92.98
2019-03-03T17:28:08.036Z,92.92
2019-03-03T17:30:38.613Z,92.49
2019-03-03T17:33:10.508Z,92.69
2019-03-03T17:35:41.336Z,92.04
2019-03-03T17:38:12.075Z,92.12
2019-03-03T17:40:42.513Z,91.71
2019-03-03T17:43:13.014Z,92.08
2019-03-03T17:45:43.786Z,91.93
2019-03-03T17:48:14.283Z,91.98
2019-03-03T17:50:44.757Z,92.01
2019-03-03T17:53:15.181Z,92.24
2019-03-03T17:55:45.944Z,91.74
2019-03-03T17:58:19.816Z,91.22
2019-03-03T18:00:50.647Z,91.44
2019-03-03T18:03:21.102Z,91.68
2019-03-03T18:05:51.604Z,91.44
2019-03-03T18:08:22.057Z,91.63
2019-03-03T18:10:52.506Z,91.35
2019-03-03T18:13:23.013Z,91.35
2019-03-03T18:15:53.478Z,91.38
2019-03-03T18:18:23.913Z,89.94
2019-03-03T18:20:54.709Z,90.09
2019-03-03T18:23:25.516Z,89.30
2019-03-03T18:25:58.529Z,88.92
2019-03-03T18:28:28.968Z,89.03
2019-03-03T18:30:59.411Z,88.24
2019-03-03T18:33:29.883Z,87.63
2019-03-03T18:36:01.230Z,87.83
2019-03-03T18:38:32.674Z,86.97
2019-03-03T18:41:03.168Z,87.52
2019-03-03T18:43:33.629Z,87.49
2019-03-03T18:46:05.820Z,87.07
2019-03-03T18:48:37.603Z,86.83
2019-03-03T18:51:16.475Z,86.09
2019-03-03T18:53:47.848Z,86.18
2019-03-03T18:56:19.344Z,85.71
2019-03-03T18:58:50.190Z,85.77
2019-03-03T19:01:20.666Z,86.09
2019-03-03T19:03:51.200Z,85.28
2019-03-03T19:06:21.961Z,85.02
2019-03-03T19:08:52.521Z,85.51
2019-03-03T19:11:22.955Z,84.91
2019-03-03T19:13:55.576Z,84.84
2019-03-03T19:16:26.282Z,84.71
2019-03-03T19:18:57.408Z,84.13
2019-03-03T19:21:28.135Z,84.50
2019-03-03T19:23:58.889Z,83.88
2019-03-03T19:26:30.072Z,84.00
2019-03-03T19:29:00.616Z,83.82
2019-03-03T19:31:31.704Z,84.18
2019-03-03T19:34:02.129Z,83.23
2019-03-03T19:36:33.059Z,82.99
2019-03-03T19:39:04.114Z,83.03
2019-03-03T19:41:34.968Z,83.13
2019-03-03T19:44:05.660Z,83.35
2019-03-03T19:46:36.634Z,82.90
2019-03-03T19:49:07.071Z,82.37
2019-03-03T19:51:41.258Z,82.39
2019-03-03T19:54:12.020Z,82.48
2019-03-03T19:56:42.763Z,82.86
2019-03-03T19:59:13.423Z,82.77
2019-03-03T20:01:43.838Z,82.76
2019-03-03T20:04:14.293Z,82.55
2019-03-03T20:06:47.013Z,82.33
2019-03-03T20:09:17.852Z,81.97
2019-03-03T20:11:48.610Z,81.62
2019-03-03T20:14:19.093Z,82.12
2019-03-03T20:16:49.527Z,81.99
2019-03-03T20:19:20.240Z,81.49
2019-03-03T20:21:50.818Z,81.96
2019-03-03T20:24:21.254Z,81.72
2019-03-03T20:26:51.979Z,81.38
2019-03-03T20:29:23.462Z,81.34
2019-03-03T20:31:53.894Z,81.19
2019-03-03T20:34:24.768Z,81.17
2019-03-03T20:36:57.661Z,81.16
2019-03-03T20:39:28.097Z,81.32
2019-03-03T20:41:58.595Z,81.45
2019-03-03T20:44:29.117Z,81.83
2019-03-03T20:46:59.548Z,81.87
2019-03-03T20:49:30.776Z,81.86
2019-03-03T20:52:01.350Z,82.13
2019-03-03T20:54:32.652Z,82.21
2019-03-03T20:57:03.791Z,82.08
2019-03-03T20:59:34.770Z,82.02
2019-03-03T21:02:05.596Z,81.28
2019-03-03T21:04:36.216Z,81.64
2019-03-03T21:07:07.005Z,81.57
2019-03-03T21:09:37.569Z,82.01
2019-03-03T21:12:08.339Z,81.67
2019-03-03T21:14:38.834Z,81.65
2019-03-03T21:17:09.279Z,81.53
2019-03-03T21:19:39.774Z,80.83
2019-03-03T21:22:10.269Z,81.72
2019-03-03T21:24:40.712Z,81.52
2019-03-03T21:27:11.186Z,81.47
2019-03-03T21:29:41.682Z,81.43
2019-03-03T21:32:12.106Z,81.07
2019-03-03T21:34:42.568Z,80.79
2019-03-03T21:37:14.607Z,80.57
2019-03-03T21:39:47.980Z,80.64
2019-03-03T21:42:18.789Z,80.44
2019-03-03T21:44:49.814Z,80.48
2019-03-03T21:47:20.701Z,80.74
2019-03-03T21:49:51.224Z,81.23
2019-03-03T21:52:21.664Z,80.66
2019-03-03T21:54:52.639Z,81.04
2019-03-03T21:57:23.221Z,81.17
2019-03-03T21:59:53.670Z,81.35
2019-03-03T22:02:24.186Z,80.94
2019-03-03T22:04:54.666Z,81.16
2019-03-03T22:07:25.098Z,81.34
2019-03-03T22:09:55.553Z,81.25
2019-03-03T22:12:26.061Z,80.33
2019-03-03T22:14:56.798Z,81.02
2019-03-03T22:17:27.243Z,81.44
2019-03-03T22:19:57.711Z,81.20
2019-03-03T22:22:28.145Z,81.29
2019-03-03T22:24:58.972Z,80.88
2019-03-03T22:27:30.029Z,81.22
2019-03-03T22:30:01.060Z,81.95
2019-03-03T22:32:31.849Z,82.57
2019-03-03T22:35:02.512Z,83.25
2019-03-03T22:37:33.237Z,83.63
2019-03-03T22:40:04.099Z,83.83
2019-03-03T22:42:36.087Z,83.51
2019-03-03T22:45:08.038Z,83.97
2019-03-03T22:47:40.282Z,84.01
2019-03-03T22:50:12.280Z,84.06
2019-03-03T22:52:42.760Z,84.35
2019-03-03T22:55:13.963Z,84.37
2019-03-03T22:57:44.406Z,84.67
2019-03-03T23:00:27.109Z,84.85
2019-03-03T23:02:57.536Z,84.41
2019-03-03T23:05:39.928Z,84.23
2019-03-03T23:08:22.680Z,84.07
2019-03-03T23:11:40.355Z,83.69
2019-03-03T23:14:36.168Z,83.70
2019-03-03T23:17:53.376Z,83.37
2019-03-03T23:20:44.774Z,83.39
2019-03-03T23:23:55.004Z,83.18
2019-03-03T23:26:25.744Z,82.88
2019-03-03T23:28:56.169Z,82.87
2019-03-03T23:31:27.015Z,82.94
2019-03-03T23:33:57.438Z,83.00
2019-03-03T23:36:27.863Z,82.23
2019-03-03T23:38:58.317Z,81.92
2019-03-03T23:41:28.758Z,82.08
2019-03-03T23:43:59.286Z,81.64
2019-03-03T23:46:29.713Z,81.50
2019-03-03T23:49:00.140Z,81.25
2019-03-03T23:51:31.580Z,81.05
2019-03-03T23:54:02.277Z,81.76
2019-03-03T23:56:32.705Z,81.71
2019-03-03T23:59:03.159Z,81.71
